| time (UTC) | temp F | wind direction | speed knots | gust knots | rain 1hr in | rain 24hr in | rain mn in | humidity % | barometer mb |
| 20260901231547 | 74 | 303 | 3.5 | 10.4 | 0.00 | 0.00 | 0.00 | 76 | 1012.7 |
| 20260901231048 | 74 | 281 | 3.5 | 10.4 | 0.00 | 0.00 | 0.00 | 75 | 1012.8 |
| 20260901230807 | 74 | 279 | 4.3 | 10.4 | 0.00 | 0.00 | 0.00 | 75 | 1012.7 |
| 20260901230048 | 74 | 291 | 3.5 | 10.4 | 0.00 | 0.00 | 0.00 | 76 | 1012.8 |
| 20260901225048 | 74 | 294 | 5.2 | 11.3 | 0.00 | 0.00 | 0.00 | 76 | 1012.9 |
| 20260901224547 | 74 | 348 | 6.1 | 10.4 | 0.00 | 0.00 | 0.00 | 75 | 1012.9 |
| 20260901224046 | 74 | 283 | 4.3 | 12.2 | 0.00 | 0.00 | 0.00 | 76 | 1013.0 |
| 20260901223547 | 74 | 311 | 2.6 | 12.2 | 0.00 | 0.00 | 0.00 | 76 | 1012.9 |
| 20260901223050 | 74 | 300 | 4.3 | 10.4 | 0.00 | 0.00 | 0.00 | 75 | 1012.9 |
| 20260901222554 | 74 | 265 | 3.5 | 10.4 | 0.00 | 0.00 | 0.00 | 75 | 1012.9 |
| 20260901222045 | 75 | 255 | 4.3 | 8.7 | 0.00 | 0.00 | 0.00 | 75 | 1012.9 |
| 20260901221545 | 75 | 265 | 4.3 | 11.3 | 0.00 | 0.00 | 0.00 | 75 | 1013.0 |
| 20260901221043 | 75 | 242 | 7.8 | 12.2 | 0.00 | 0.00 | 0.00 | 75 | 1012.9 |
| 20260901220811 | 75 | 285 | 2.6 | 12.2 | 0.00 | 0.00 | 0.00 | 76 | 1013.0 |
| 20260901220044 | 75 | 318 | 7.0 | 12.2 | 0.00 | 0.00 | 0.00 | 75 | 1012.9 |
| 20260901215544 | 75 | 232 | 2.6 | 10.4 | 0.00 | 0.00 | 0.00 | 74 | 1012.9 |
| 20260901215043 | 75 | 13 | 6.1 | 11.3 | 0.00 | 0.00 | 0.00 | 74 | 1013.1 |
| 20260901214546 | 74 | 310 | 5.2 | 11.3 | 0.00 | 0.00 | 0.00 | 76 | 1013.1 |
| 20260901214044 | 74 | 274 | 7.0 | 13.9 | 0.00 | 0.00 | 0.00 | 75 | 1013.1 |
| 20260901213803 | 74 | 295 | 4.3 | 13.9 | 0.00 | 0.00 | 0.00 | 75 | 1013.1 |
| 20260901213043 | 74 | 255 | 3.5 | 13.0 | 0.00 | 0.00 | 0.00 | 75 | 1013.2 |
| 20260901212543 | 74 | 266 | 4.3 | 13.9 | 0.00 | 0.00 | 0.00 | 75 | 1013.2 |
| 20260901212308 | 74 | 310 | 4.3 | 13.9 | 0.00 | 0.00 | 0.00 | 76 | 1013.2 |
| 20260901211543 | 75 | 26 | 6.1 | 12.2 | 0.00 | 0.00 | 0.00 | 76 | 1013.1 |
| 20260901211043 | 75 | 4 | 5.2 | 12.2 | 0.00 | 0.00 | 0.00 | 77 | 1013.1 |
| 20260901210545 | 75 | 337 | 6.1 | 11.3 | 0.00 | 0.00 | 0.00 | 74 | 1013.2 |
| 20260901210044 | 75 | 256 | 6.1 | 10.4 | 0.00 | 0.00 | 0.00 | 76 | 1013.3 |
| 20260901205803 | 75 | 270 | 5.2 | 10.4 | 0.00 | 0.00 | 0.00 | 76 | 1013.3 |
| 20260901205310 | 75 | 235 | 6.1 | 10.4 | 0.00 | 0.00 | 0.00 | 75 | 1013.3 |
| 20260901204547 | 75 | 311 | 6.1 | 12.2 | 0.00 | 0.00 | 0.00 | 75 | 1013.3 |
| 20260901204044 | 75 | 291 | 1.7 | 13.0 | 0.00 | 0.00 | 0.00 | 75 | 1013.2 |
| 20260901203542 | 75 | 313 | 7.8 | 13.0 | 0.00 | 0.00 | 0.00 | 74 | 1013.3 |
| 20260901203043 | 75 | 359 | 2.6 | 13.9 | 0.00 | 0.00 | 0.00 | 73 | 1013.3 |
| 20260901202544 | 75 | 285 | 8.7 | 13.9 | 0.00 | 0.00 | 0.00 | 73 | 1013.3 |
| 20260901202043 | 75 | 295 | 4.3 | 10.4 | 0.00 | 0.00 | 0.00 | 75 | 1013.3 |
| 20260901201542 | 75 | 322 | 3.5 | 11.3 | 0.00 | 0.00 | 0.00 | 73 | 1013.4 |
| 20260901201042 | 75 | 340 | 7.0 | 13.0 | 0.00 | 0.00 | 0.00 | 73 | 1013.3 |
| 20260901200543 | 75 | 359 | 3.5 | 13.0 | 0.00 | 0.00 | 0.00 | 73 | 1013.5 |
| 20260901200346 | 76 | 338 | 5.2 | 11.3 | 0.00 | 0.00 | 0.00 | 74 | 1013.5 |
| 20260901195542 | 76 | 338 | 3.5 | 11.3 | 0.00 | 0.00 | 0.00 | 72 | 1013.5 |
| 20260901195041 | 76 | 261 | 4.3 | 13.0 | 0.00 | 0.00 | 0.00 | 72 | 1013.5 |
| 20260901194543 | 76 | 353 | 5.2 | 13.0 | 0.00 | 0.00 | 0.00 | 72 | 1013.5 |
| 20260901194041 | 76 | 300 | 5.2 | 7.8 | 0.00 | 0.00 | 0.00 | 73 | 1013.6 |
| 20260901141418 | 67 | 329 | 0.0 | 0.0 | 0.00 | 0.00 | 0.00 | 87 | 1013.1 |
| 20260901141141 | 67 | 308 | 0.0 | 0.0 | 0.00 | 0.00 | 0.00 | 88 | 1013.1 |
| 20260901140416 | 67 | 297 | 0.0 | 0.0 | 0.00 | 0.00 | 0.00 | 88 | 1013.0 |
| 20260901135915 | 67 | 277 | 0.0 | 0.0 | 0.00 | 0.00 | 0.00 | 89 | 1013.0 |
| 20260901135417 | 67 | 276 | 0.0 | 0.0 | 0.00 | 0.00 | 0.00 | 89 | 1013.0 |
| 20260901134916 | 67 | 327 | 0.0 | 0.0 | 0.00 | 0.00 | 0.00 | 89 | 1013.0 |
| 20260901134415 | 66 | 272 | 0.0 | 0.0 | 0.00 | 0.00 | 0.00 | 89 | 1013.0 |
| 20260901133916 | 66 | 281 | 0.0 | 0.0 | 0.00 | 0.00 | 0.00 | 89 | 1012.9 |
| 20260901133415 | 66 | 254 | 0.0 | 0.0 | 0.00 | 0.00 | 0.00 | 89 | 1012.8 |
| 20260901132917 | 66 | 234 | 0.0 | 0.0 | 0.00 | 0.00 | 0.00 | 89 | 1012.8 |
| 20260901131416 | 66 | 284 | 0.0 | 0.0 | 0.00 | 0.00 | 0.00 | 90 | 1012.7 |
| 20260901130415 | 67 | 249 | 0.0 | 0.0 | 0.00 | 0.00 | 0.00 | 90 | 1012.7 |
| 20260901125914 | 67 | 252 | 0.0 | 0.0 | 0.00 | 0.00 | 0.00 | 90 | 1012.7 |
| 20260901125416 | 67 | 253 | 0.0 | 0.0 | 0.00 | 0.00 | 0.00 | 90 | 1012.6 |
| 20260901124915 | 67 | 253 | 0.0 | 0.0 | 0.00 | 0.00 | 0.00 | 90 | 1012.6 |
| 20260901124635 | 67 | 244 | 0.0 | 0.0 | 0.00 | 0.00 | 0.00 | 90 | 1012.6 |
| 20260901123914 | 67 | 266 | 0.0 | 0.0 | 0.00 | 0.00 | 0.00 | 89 | 1012.5 |
| 20260901123415 | 67 | 323 | 0.0 | 0.0 | 0.00 | 0.00 | 0.00 | 89 | 1012.6 |
| 20260901122915 | 67 | 307 | 0.0 | 0.0 | 0.00 | 0.00 | 0.00 | 90 | 1012.6 |
| 20260901122414 | 67 | 268 | 0.0 | 1.7 | 0.00 | 0.00 | 0.00 | 89 | 1012.6 |
| 20260901121914 | 67 | 262 | 0.0 | 2.6 | 0.00 | 0.00 | 0.00 | 89 | 1012.6 |
| 20260901121642 | 67 | 205 | 1.7 | 4.3 | 0.00 | 0.00 | 0.00 | 89 | 1012.6 |
| 20260901120916 | 67 | 207 | 2.6 | 4.3 | 0.00 | 0.00 | 0.00 | 90 | 1012.6 |
| 20260901120414 | 67 | 189 | 2.6 | 2.6 | 0.00 | 0.00 | 0.00 | 91 | 1012.6 |
| 20260901115913 | 67 | 214 | 0.0 | 0.0 | 0.00 | 0.00 | 0.00 | 91 | 1012.5 |
| 20260901115415 | 67 | 206 | 0.0 | 0.0 | 0.00 | 0.00 | 0.00 | 91 | 1012.5 |
| 20260901114915 | 66 | 241 | 0.0 | 0.9 | 0.00 | 0.00 | 0.00 | 90 | 1012.4 |
| 20260901114634 | 66 | 251 | 0.0 | 1.7 | 0.00 | 0.00 | 0.00 | 90 | 1012.4 |
| 20260901114139 | 66 | 292 | 0.0 | 1.7 | 0.00 | 0.00 | 0.00 | 90 | 1012.3 |
| 20260901113638 | 67 | 324 | 0.9 | 1.7 | 0.00 | 0.00 | 0.00 | 90 | 1012.3 |
| 20260901112914 | 67 | 323 | 0.0 | 0.0 | 0.00 | 0.00 | 0.00 | 90 | 1012.4 |
| 20260901112414 | 67 | 290 | 0.0 | 0.0 | 0.00 | 0.00 | 0.00 | 90 | 1012.4 |
| 20260901111912 | 67 | 268 | 0.0 | 0.0 | 0.00 | 0.00 | 0.00 | 90 | 1012.4 |
| 20260901111636 | 67 | 301 | 0.0 | 0.9 | 0.00 | 0.00 | 0.00 | 90 | 1012.5 |
| 20260901110913 | 67 | 280 | 0.0 | 1.7 | 0.00 | 0.00 | 0.00 | 90 | 1012.5 |
| 20260901110413 | 67 | 273 | 0.0 | 1.7 | 0.00 | 0.00 | 0.00 | 90 | 1012.4 |
| 20260901105912 | 67 | 28 | 1.7 | 1.7 | 0.00 | 0.00 | 0.00 | 90 | 1012.4 |
| 20260901105632 | 67 | 354 | 0.0 | 0.0 | 0.00 | 0.00 | 0.00 | 90 | 1012.5 |
| 20260901104913 | 67 | 321 | 0.0 | 0.0 | 0.00 | 0.00 | 0.00 | 90 | 1012.4 |
| 20260901104413 | 67 | 306 | 0.0 | 0.0 | 0.00 | 0.00 | 0.00 | 91 | 1012.5 |
| 20260901103912 | 67 | 318 | 0.0 | 0.0 | 0.00 | 0.00 | 0.00 | 91 | 1012.5 |
| 20260901103634 | 67 | 277 | 0.0 | 0.0 | 0.00 | 0.00 | 0.00 | 91 | 1012.5 |
| 20260901102912 | 67 | 266 | 0.0 | 0.0 | 0.00 | 0.00 | 0.00 | 91 | 1012.6 |
| 20260901102635 | 67 | 257 | 0.0 | 0.0 | 0.00 | 0.00 | 0.00 | 91 | 1012.6 |
| 20260901101912 | 67 | 250 | 0.0 | 0.0 | 0.00 | 0.00 | 0.00 | 90 | 1012.7 |
| 20260901101636 | 67 | 245 | 0.0 | 0.0 | 0.00 | 0.00 | 0.00 | 90 | 1012.7 |
| 20260901100912 | 67 | 271 | 0.0 | 0.0 | 0.00 | 0.00 | 0.00 | 89 | 1012.6 |
| 20260901100409 | 68 | 276 | 0.0 | 0.0 | 0.00 | 0.00 | 0.00 | 89 | 1012.7 |
| 20260901100037 | 68 | 278 | 0.0 | 1.7 | 0.00 | 0.00 | 0.00 | 89 | 1012.7 |
| 20260901095536 | 68 | 292 | 0.0 | 1.7 | 0.00 | 0.00 | 0.00 | 88 | 1012.6 |
| 20260901095035 | 68 | 343 | 0.9 | 2.6 | 0.00 | 0.00 | 0.00 | 88 | 1012.7 |
| 20260901094535 | 68 | 20 | 0.9 | 2.6 | 0.00 | 0.00 | 0.00 | 89 | 1012.7 |
| 20260901094036 | 68 | 294 | 1.7 | 2.6 | 0.00 | 0.00 | 0.00 | 89 | 1012.6 |
| 20260901093536 | 68 | 280 | 0.0 | 1.7 | 0.00 | 0.00 | 0.00 | 89 | 1012.6 |
| 20260901093257 | 68 | 327 | 0.0 | 4.3 | 0.00 | 0.00 | 0.00 | 89 | 1012.6 |
| 20260901092534 | 68 | 310 | 1.7 | 4.3 | 0.00 | 0.00 | 0.00 | 89 | 1012.6 |
| 20260901092037 | 68 | 299 | 2.6 | 5.2 | 0.00 | 0.00 | 0.00 | 89 | 1012.6 |
| 20260901091535 | 68 | 273 | 3.5 | 5.2 | 0.00 | 0.00 | 0.00 | 89 | 1012.5 |
| 20260901091302 | 68 | 274 | 3.5 | 4.3 | 0.00 | 0.00 | 0.00 | 89 | 1012.6 |
| 20260901090534 | 68 | 325 | 2.6 | 4.3 | 0.00 | 0.00 | 0.00 | 90 | 1012.7 |
| 20260901090256 | 68 | 24 | 1.7 | 5.2 | 0.00 | 0.00 | 0.00 | 90 | 1012.7 |
| 20260901085536 | 67 | 28 | 1.7 | 5.2 | 0.00 | 0.00 | 0.00 | 90 | 1012.8 |
| 20260901084533 | 67 | 359 | 0.0 | 4.3 | 0.00 | 0.00 | 0.00 | 90 | 1012.7 |
| 20260901084035 | 67 | 333 | 0.0 | 1.7 | 0.00 | 0.00 | 0.00 | 90 | 1012.7 |
| 20260901083535 | 67 | 46 | 0.9 | 4.3 | 0.00 | 0.00 | 0.00 | 90 | 1012.7 |
| 20260901083034 | 67 | 25 | 0.9 | 4.3 | 0.00 | 0.00 | 0.00 | 90 | 1012.7 |
| 20260901082800 | 67 | 350 | 0.0 | 2.6 | 0.00 | 0.00 | 0.00 | 90 | 1012.7 |
| 20260901082033 | 67 | 306 | 0.0 | 0.0 | 0.00 | 0.00 | 0.00 | 90 | 1012.7 |
| 20260901081803 | 67 | 253 | 0.0 | 0.0 | 0.00 | 0.00 | 0.00 | 90 | 1012.7 |
| 20260901081033 | 67 | 265 | 0.0 | 0.0 | 0.00 | 0.00 | 0.00 | 90 | 1012.6 |
| 20260901080533 | 67 | 267 | 0.0 | 0.0 | 0.00 | 0.00 | 0.00 | 90 | 1012.7 |
| 20260901080032 | 67 | 267 | 0.0 | 2.6 | 0.00 | 0.00 | 0.00 | 90 | 1012.7 |
| 20260901075534 | 67 | 270 | 0.0 | 2.6 | 0.00 | 0.00 | 0.00 | 90 | 1012.7 |
| 20260901075034 | 67 | 267 | 0.0 | 0.0 | 0.00 | 0.00 | 0.00 | 90 | 1012.7 |
| 20260901074533 | 68 | 278 | 0.0 | 0.0 | 0.00 | 0.00 | 0.00 | 89 | 1012.7 |
| 20260901074032 | 68 | 297 | 0.0 | 0.0 | 0.00 | 0.00 | 0.00 | 89 | 1012.7 |
| 20260901073534 | 68 | 288 | 0.0 | 2.6 | 0.00 | 0.00 | 0.00 | 89 | 1012.7 |
| 20260901073035 | 68 | 297 | 1.7 | 4.3 | 0.00 | 0.00 | 0.00 | 89 | 1012.8 |
| 20260901072803 | 68 | 283 | 2.6 | 4.3 | 0.00 | 0.00 | 0.00 | 89 | 1012.8 |
| 20260901072032 | 68 | 271 | 0.9 | 4.3 | 0.00 | 0.00 | 0.00 | 89 | 1012.9 |
| 20260901071533 | 68 | 281 | 2.6 | 2.6 | 0.00 | 0.00 | 0.00 | 89 | 1012.8 |
| 20260901071033 | 68 | 271 | 0.9 | 2.6 | 0.00 | 0.00 | 0.00 | 89 | 1012.9 |
| 20260901070531 | 68 | 291 | 2.6 | 2.6 | 0.00 | 0.00 | 0.00 | 89 | 1012.9 |
| 20260901070032 | 68 | 275 | 1.7 | 4.3 | 0.00 | 0.00 | 0.00 | 89 | 1013.0 |
| 20260901065533 | 68 | 270 | 1.7 | 4.3 | 0.00 | 0.00 | 0.00 | 89 | 1012.9 |
| 20260901065033 | 68 | 302 | 1.7 | 4.3 | 0.00 | 0.00 | 0.00 | 89 | 1012.8 |
| 20260901064754 | 68 | 279 | 1.7 | 4.3 | 0.00 | 0.00 | 0.00 | 89 | 1012.8 |
| 20260901064031 | 68 | 284 | 1.7 | 4.3 | 0.00 | 0.00 | 0.00 | 89 | 1012.7 |
| 20260901063532 | 68 | 291 | 1.7 | 2.6 | 0.00 | 0.00 | 0.00 | 89 | 1012.8 |
| 20260901063255 | 68 | 274 | 1.7 | 4.3 | 0.00 | 0.00 | 0.00 | 89 | 1012.7 |
| 20260901062530 | 68 | 283 | 0.9 | 4.3 | 0.00 | 0.00 | 0.00 | 88 | 1012.8 |
| 20260901062031 | 68 | 277 | 1.7 | 2.6 | 0.00 | 0.00 | 0.00 | 89 | 1012.9 |
| 20260901061532 | 68 | 273 | 0.0 | 2.6 | 0.00 | 0.00 | 0.00 | 88 | 1012.8 |
| 20260901061251 | 69 | 264 | 0.0 | 4.3 | 0.00 | 0.00 | 0.00 | 88 | 1012.7 |
| 20260901060530 | 69 | 262 | 0.0 | 4.3 | 0.00 | 0.00 | 0.00 | 87 | 1012.7 |
| 20260901060030 | 69 | 289 | 2.6 | 6.1 | 0.00 | 0.00 | 0.00 | 87 | 1012.7 |
| 20260901055530 | 69 | 270 | 1.7 | 6.1 | 0.00 | 0.00 | 0.00 | 87 | 1012.7 |
| 20260901055032 | 69 | 322 | 3.5 | 5.2 | 0.00 | 0.00 | 0.00 | 87 | 1012.7 |
| 20260901054530 | 69 | 298 | 3.5 | 5.2 | 0.00 | 0.00 | 0.00 | 86 | 1012.8 |
| 20260901054030 | 69 | 328 | 3.5 | 5.2 | 0.00 | 0.00 | 0.00 | 86 | 1012.8 |
| 20260901053529 | 69 | 324 | 2.6 | 5.2 | 0.00 | 0.00 | 0.00 | 86 | 1012.8 |
| 20260901053031 | 69 | 304 | 1.7 | 4.3 | 0.00 | 0.00 | 0.00 | 86 | 1012.8 |
| 20260901052530 | 69 | 298 | 2.6 | 5.2 | 0.00 | 0.00 | 0.00 | 86 | 1012.8 |
| 20260901052029 | 69 | 295 | 2.6 | 6.1 | 0.00 | 0.00 | 0.00 | 85 | 1012.6 |
| 20260901051529 | 69 | 289 | 5.2 | 6.1 | 0.00 | 0.00 | 0.00 | 85 | 1012.6 |
| 20260901051255 | 69 | 293 | 4.3 | 5.2 | 0.00 | 0.00 | 0.00 | 85 | 1012.5 |
| 20260901050529 | 69 | 281 | 2.6 | 5.2 | 0.00 | 0.00 | 0.00 | 85 | 1012.5 |
| 20260901050029 | 69 | 260 | 0.0 | 5.2 | 0.00 | 0.00 | 0.00 | 85 | 1012.5 |
| 20260901045529 | 69 | 272 | 2.6 | 5.2 | 0.00 | 0.00 | 0.00 | 85 | 1012.5 |
| 20260901045029 | 69 | 294 | 2.6 | 5.2 | 0.00 | 0.00 | 0.00 | 85 | 1012.5 |
| 20260901044530 | 69 | 272 | 2.6 | 5.2 | 0.00 | 0.00 | 0.00 | 85 | 1012.5 |
| 20260901043528 | 69 | 279 | 2.6 | 5.2 | 0.00 | 0.00 | 0.00 | 86 | 1012.5 |
| 20260901043029 | 69 | 278 | 0.0 | 5.2 | 0.00 | 0.00 | 0.00 | 86 | 1012.3 |
| 20260901042529 | 69 | 311 | 2.6 | 4.3 | 0.00 | 0.00 | 0.00 | 86 | 1012.3 |
| 20260901042248 | 69 | 298 | 3.5 | 4.3 | 0.00 | 0.00 | 0.00 | 86 | 1012.3 |
| 20260901041527 | 69 | 297 | 1.7 | 5.2 | 0.00 | 0.00 | 0.00 | 86 | 1012.4 |
| 20260901041245 | 69 | 277 | 4.3 | 6.1 | 0.00 | 0.00 | 0.00 | 86 | 1012.3 |
| 20260901040529 | 69 | 294 | 3.5 | 6.1 | 0.00 | 0.00 | 0.00 | 86 | 1012.3 |
| 20260901040027 | 69 | 16 | 1.7 | 5.2 | 0.00 | 0.00 | 0.00 | 86 | 1012.2 |
| 20260901035747 | 69 | 270 | 0.9 | 5.2 | 0.00 | 0.00 | 0.00 | 86 | 1012.2 |
| 20260901035028 | 69 | 278 | 0.9 | 5.2 | 0.00 | 0.00 | 0.00 | 86 | 1012.2 |
| 20260901034027 | 69 | 261 | 1.7 | 7.8 | 0.00 | 0.00 | 0.00 | 86 | 1012.2 |
| 20260901033527 | 69 | 320 | 2.6 | 7.8 | 0.00 | 0.00 | 0.00 | 86 | 1012.1 |
| 20260901033029 | 69 | 336 | 7.0 | 7.8 | 0.00 | 0.00 | 0.00 | 86 | 1012.0 |
| 20260901032528 | 69 | 316 | 6.1 | 7.8 | 0.00 | 0.00 | 0.00 | 85 | 1012.0 |
| 20260901032247 | 69 | 319 | 6.1 | 7.8 | 0.00 | 0.00 | 0.00 | 85 | 1011.9 |
| 20260901031526 | 69 | 342 | 5.2 | 7.8 | 0.00 | 0.00 | 0.00 | 85 | 1011.9 |
| 20260901031028 | 69 | 303 | 4.3 | 7.8 | 0.00 | 0.00 | 0.00 | 85 | 1011.8 |
| 20260901030749 | 69 | 277 | 2.6 | 6.1 | 0.00 | 0.00 | 0.00 | 85 | 1011.7 |
| 20260901030026 | 69 | 294 | 3.5 | 6.1 | 0.00 | 0.00 | 0.00 | 86 | 1011.8 |
| 20260901025526 | 69 | 258 | 0.9 | 4.3 | 0.00 | 0.00 | 0.00 | 86 | 1011.8 |
| 20260901025026 | 69 | 284 | 1.7 | 4.3 | 0.00 | 0.00 | 0.00 | 86 | 1011.6 |
| 20260901024527 | 70 | 259 | 1.7 | 4.3 | 0.00 | 0.00 | 0.00 | 86 | 1011.5 |
| 20260901024025 | 70 | 270 | 0.9 | 5.2 | 0.00 | 0.00 | 0.00 | 85 | 1011.5 |
| 20260901023525 | 70 | 265 | 1.7 | 5.2 | 0.00 | 0.00 | 0.00 | 85 | 1011.3 |
| 20260901023025 | 70 | 240 | 0.9 | 6.1 | 0.00 | 0.00 | 0.00 | 85 | 1011.4 |
| 20260901022527 | 70 | 330 | 2.6 | 6.1 | 0.00 | 0.00 | 0.00 | 85 | 1011.2 |
| 20260901022025 | 71 | 261 | 0.9 | 6.1 | 0.00 | 0.00 | 0.00 | 84 | 1011.1 |
| 20260901021525 | 71 | 247 | 2.6 | 6.1 | 0.00 | 0.00 | 0.00 | 84 | 1011.1 |
| 20260901021026 | 71 | 291 | 2.6 | 6.1 | 0.00 | 0.00 | 0.00 | 83 | 1011.2 |
| 20260901020526 | 72 | 331 | 2.6 | 5.2 | 0.00 | 0.00 | 0.00 | 83 | 1011.2 |
| 20260901020251 | 72 | 282 | 1.7 | 5.2 | 0.00 | 0.00 | 0.00 | 82 | 1011.1 |
| 20260901015525 | 73 | 263 | 1.7 | 5.2 | 0.00 | 0.00 | 0.00 | 82 | 1011.1 |
| 20260901015025 | 73 | 278 | 1.7 | 6.1 | 0.00 | 0.00 | 0.00 | 81 | 1011.1 |
| 20260901014025 | 73 | 280 | 0.9 | 7.0 | 0.00 | 0.00 | 0.00 | 79 | 1011.1 |
| 20260901013034 | 74 | 308 | 1.7 | 5.2 | 0.00 | 0.00 | 0.00 | 77 | 1011.0 |
| 20260901012525 | 74 | 255 | 0.0 | 6.1 | 0.00 | 0.00 | 0.00 | 78 | 1010.9 |
| 20260901012257 | 74 | 261 | 1.7 | 7.0 | 0.00 | 0.00 | 0.00 | 77 | 1011.0 |
| 20260901011524 | 74 | 270 | 0.9 | 7.0 | 0.00 | 0.00 | 0.00 | 77 | 1011.0 |
| 20260901011246 | 74 | 289 | 1.7 | 6.1 | 0.00 | 0.00 | 0.00 | 76 | 1011.0 |
| 20260901010530 | 74 | 309 | 1.7 | 7.0 | 0.00 | 0.00 | 0.00 | 76 | 1011.0 |
| 20260901010025 | 74 | 273 | 2.6 | 8.7 | 0.00 | 0.00 | 0.00 | 76 | 1011.1 |
| 20260901005745 | 74 | 277 | 3.5 | 8.7 | 0.00 | 0.00 | 0.00 | 77 | 1011.1 |
| 20260901005024 | 74 | 350 | 4.3 | 7.8 | 0.00 | 0.00 | 0.00 | 78 | 1011.1 |
| 20260901004742 | 74 | 21 | 3.5 | 7.0 | 0.00 | 0.00 | 0.00 | 77 | 1011.1 |
| 20260901004024 | 75 | 261 | 0.9 | 7.0 | 0.00 | 0.00 | 0.00 | 77 | 1011.1 |
| 20260901003522 | 75 | 262 | 2.6 | 7.0 | 0.00 | 0.00 | 0.00 | 77 | 1011.1 |
| 20260901003022 | 75 | 309 | 2.6 | 7.0 | 0.00 | 0.00 | 0.00 | 76 | 1011.1 |
| 20260901002526 | 75 | 27 | 2.6 | 7.0 | 0.00 | 0.00 | 0.00 | 77 | 1011.1 |
| 20260901002023 | 75 | 272 | 1.7 | 7.0 | 0.00 | 0.00 | 0.00 | 76 | 1011.1 |
| 20260901001523 | 75 | 262 | 3.5 | 7.0 | 0.00 | 0.00 | 0.00 | 75 | 1011.1 |
| 20260901001022 | 75 | 342 | 4.3 | 7.0 | 0.00 | 0.00 | 0.00 | 73 | 1011.2 |
| 20260901000522 | 75 | 216 | 4.3 | 7.0 | 0.00 | 0.00 | 0.00 | 75 | 1011.2 |
| 20260901000023 | 75 | 295 | 1.7 | 7.0 | 0.00 | 0.00 | 0.00 | 75 | 1011.2 |
| 20260831235522 | 75 | 335 | 1.7 | 7.8 | 0.00 | 0.00 | 0.00 | 75 | 1011.2 |
| 20260831235021 | 75 | 11 | 2.6 | 7.8 | 0.00 | 0.00 | 0.00 | 74 | 1011.3 |
| 20260831234522 | 76 | 297 | 3.5 | 7.0 | 0.00 | 0.00 | 0.00 | 75 | 1011.3 |
| 20260831234023 | 76 | 319 | 3.5 | 7.0 | 0.00 | 0.00 | 0.00 | 73 | 1011.4 |
| 20260831233522 | 76 | 339 | 2.6 | 7.0 | 0.00 | 0.00 | 0.00 | 74 | 1011.3 |
| 20260831233023 | 76 | 301 | 2.6 | 7.0 | 0.00 | 0.00 | 0.00 | 74 | 1011.3 |
| 20260831232521 | 76 | 259 | 2.6 | 7.8 | 0.00 | 0.00 | 0.00 | 73 | 1011.4 |
| 20260831232023 | 76 | 318 | 6.1 | 7.8 | 0.00 | 0.00 | 0.00 | 72 | 1011.4 |